createdAt,value
2023-02-09T00:04:27.544Z,-5.06
2023-02-09T00:09:33.550Z,-4.70
2023-02-09T00:14:37.990Z,-4.50
2023-02-09T00:19:42.535Z,-5.63
2023-02-09T00:24:48.360Z,-4.85
2023-02-09T00:29:53.259Z,-5.95
2023-02-09T00:34:57.882Z,-6.61
2023-02-09T00:40:04.062Z,-6.12
2023-02-09T00:45:09.649Z,-5.40
2023-02-09T00:50:13.744Z,-6.01
2023-02-09T00:55:20.133Z,-7.19
2023-02-09T01:00:24.934Z,-7.31
2023-02-09T01:05:29.514Z,-7.01
2023-02-09T01:10:35.444Z,-5.94
2023-02-09T01:15:41.111Z,-5.34
2023-02-09T01:20:46.966Z,-4.94
2023-02-09T01:26:02.042Z,-5.38
2023-02-09T01:31:07.950Z,-4.68
2023-02-09T01:36:12.772Z,-5.23
2023-02-09T01:41:18.916Z,-5.06
2023-02-09T01:46:24.484Z,-5.46
2023-02-09T01:51:29.144Z,-5.37
2023-02-09T01:56:38.384Z,-6.08
2023-02-09T02:01:44.400Z,-5.56
2023-02-09T02:06:49.747Z,-5.75
2023-02-09T02:11:56.432Z,-6.60
2023-02-09T02:17:12.796Z,-5.66
2023-02-09T02:22:45.795Z,-6.44
2023-02-09T02:28:07.368Z,-5.76
2023-02-09T02:33:33.797Z,-5.55
2023-02-09T02:38:44.466Z,-6.00
2023-02-09T02:43:57.283Z,-6.13
2023-02-09T02:49:09.889Z,-7.04
2023-02-09T02:54:18.212Z,-6.82
2023-02-09T02:59:26.168Z,-6.43
2023-02-09T03:04:34.432Z,-6.58
2023-02-09T03:09:38.896Z,-6.48
2023-02-09T03:14:49.489Z,-5.82
2023-02-09T03:20:04.452Z,-5.51
2023-02-09T03:25:13.953Z,-5.27
2023-02-09T03:30:19.497Z,-6.67
2023-02-09T03:35:27.263Z,-6.42
2023-02-09T03:40:31.675Z,-6.84
2023-02-09T03:45:36.121Z,-7.01
2023-02-09T03:50:42.384Z,-6.84
2023-02-09T03:55:47.396Z,-7.29
2023-02-09T04:00:51.852Z,-6.24
2023-02-09T04:05:57.777Z,-5.77
2023-02-09T04:11:02.159Z,-6.46
2023-02-09T04:16:07.376Z,-6.42
2023-02-09T04:21:13.319Z,-6.38
2023-02-09T04:26:18.046Z,-6.85
2023-02-09T04:31:22.628Z,-5.82
2023-02-09T04:36:28.649Z,-6.21
2023-02-09T04:41:32.996Z,-6.93
2023-02-09T04:46:37.325Z,-8.32
2023-02-09T04:51:43.484Z,-7.16
2023-02-09T04:56:47.875Z,-7.22
2023-02-09T05:01:52.641Z,-8.10
2023-02-09T05:07:00.678Z,-7.88
2023-02-09T05:12:05.592Z,-7.03
2023-02-09T05:17:10.153Z,-7.49
2023-02-09T05:22:16.085Z,-8.30
2023-02-09T05:27:20.734Z,-8.94
2023-02-09T05:32:25.055Z,-8.88
2023-02-09T05:37:30.914Z,-8.24
2023-02-09T05:42:35.558Z,-9.23
2023-02-09T05:47:39.990Z,-8.30
2023-02-09T05:52:46.604Z,-8.51
2023-02-09T05:57:51.013Z,-8.14
2023-02-09T06:02:56.029Z,-7.04
2023-02-09T06:08:02.148Z,-7.90
2023-02-09T06:13:06.566Z,-7.23
2023-02-09T06:18:11.257Z,-6.90
2023-02-09T06:23:17.035Z,-6.44
2023-02-09T06:28:21.731Z,-6.93
2023-02-09T06:33:28.355Z,-5.83
2023-02-09T06:38:38.413Z,-6.83
2023-02-09T06:43:46.014Z,-5.15
2023-02-09T06:48:53.751Z,-4.85
2023-02-09T06:54:02.498Z,-5.71
2023-02-09T06:59:08.996Z,-5.14
2023-02-09T07:04:16.079Z,-5.97
2023-02-09T07:09:25.071Z,-4.82
2023-02-09T07:14:30.399Z,-4.39
2023-02-09T07:19:34.890Z,-4.01
2023-02-09T07:24:40.859Z,-3.79
2023-02-09T07:29:45.786Z,-3.22
2023-02-09T07:34:50.289Z,-3.04
2023-02-09T07:39:56.098Z,-2.42
2023-02-09T07:45:00.974Z,-2.53
2023-02-09T07:50:06.438Z,-2.71
2023-02-09T07:55:12.282Z,-2.11
2023-02-09T08:00:18.307Z,-1.74
2023-02-09T08:05:28.088Z,-1.59
2023-02-09T08:10:34.206Z,-1.98
2023-02-09T08:15:42.258Z,-1.75
2023-02-09T08:20:47.816Z,-1.88
2023-02-09T08:25:54.160Z,-2.64
2023-02-09T08:30:58.758Z,-2.12
2023-02-09T08:36:03.469Z,-1.92
2023-02-09T08:41:12.227Z,-1.41
2023-02-09T08:46:16.998Z,-0.25
2023-02-09T08:51:21.705Z,-1.29
2023-02-09T08:56:27.816Z,-1.06
2023-02-09T09:01:32.607Z,-0.60
2023-02-09T09:06:37.193Z,-0.54
2023-02-09T09:11:43.064Z,-1.03
2023-02-09T09:16:47.455Z,-0.23
2023-02-09T09:21:51.934Z,-0.18
2023-02-09T09:26:58.203Z,0.16
2023-02-09T09:32:02.688Z,-0.40
2023-02-09T09:37:07.400Z,0.13
2023-02-09T09:42:24.819Z,0.85
2023-02-09T09:47:37.623Z,1.29
2023-02-09T09:52:45.210Z,1.59
2023-02-09T09:57:52.514Z,1.23
2023-02-09T10:02:56.782Z,1.83
2023-02-09T10:08:07.005Z,0.99
2023-02-09T10:13:20.862Z,1.20
2023-02-09T10:18:26.450Z,0.52
2023-02-09T10:23:40.261Z,2.43
2023-02-09T10:28:48.140Z,3.05
2023-02-09T10:33:58.733Z,2.26
2023-02-09T10:39:15.205Z,2.28
2023-02-09T10:44:25.235Z,1.67
2023-02-09T10:49:32.388Z,0.48
2023-02-09T10:54:36.800Z,0.88
2023-02-09T10:59:42.994Z,0.68
2023-02-09T11:04:48.977Z,2.29
2023-02-09T11:09:54.776Z,2.19
2023-02-09T11:15:02.833Z,2.32
2023-02-09T11:20:24.604Z,1.44
2023-02-09T11:25:34.416Z,2.41
2023-02-09T11:30:55.566Z,1.99
2023-02-09T11:36:17.204Z,2.08
2023-02-09T11:41:47.151Z,2.51
2023-02-09T11:47:00.188Z,3.23
2023-02-09T11:52:06.481Z,3.30
2023-02-09T11:57:22.252Z,2.90
2023-02-09T12:02:46.421Z,3.91
2023-02-09T12:08:14.291Z,4.02
2023-02-09T12:13:31.740Z,4.34
2023-02-09T12:18:38.113Z,5.46
2023-02-09T12:23:43.716Z,6.36
2023-02-09T12:28:50.023Z,4.93
2023-02-09T12:34:29.120Z,3.91
2023-02-09T12:39:35.122Z,4.43
2023-02-09T12:44:40.469Z,5.56
2023-02-09T12:49:46.549Z,7.17
2023-02-09T12:54:52.672Z,4.88
2023-02-09T13:00:35.500Z,4.18
2023-02-09T13:05:46.176Z,5.06
2023-02-09T13:10:57.886Z,5.72
2023-02-09T13:16:24.598Z,6.73
2023-02-09T13:21:40.641Z,6.56
2023-02-09T13:26:52.526Z,6.26
2023-02-09T13:32:05.169Z,6.11
2023-02-09T13:37:23.237Z,6.01
2023-02-09T13:42:28.900Z,6.61
2023-02-09T13:47:33.212Z,6.52
2023-02-09T13:52:40.675Z,6.16
2023-02-09T13:57:47.608Z,6.47
2023-02-09T14:02:55.711Z,6.51
2023-02-09T14:08:03.458Z,7.02
2023-02-09T14:13:18.487Z,7.08
2023-02-09T14:18:29.765Z,7.16
2023-02-09T14:23:35.724Z,6.48
2023-02-09T14:28:41.047Z,7.07
2023-02-09T14:33:49.366Z,7.38
2023-02-09T14:39:11.418Z,7.75
2023-02-09T14:44:21.724Z,7.51
2023-02-09T14:49:26.849Z,6.74
2023-02-09T14:54:34.537Z,6.22
2023-02-09T14:59:38.854Z,7.19
2023-02-09T15:04:43.498Z,6.87
2023-02-09T15:09:50.601Z,5.98
2023-02-09T15:14:56.711Z,6.25
2023-02-09T15:20:01.211Z,5.74
2023-02-09T15:25:08.398Z,4.97
2023-02-09T15:30:16.097Z,2.80
2023-02-09T15:35:22.953Z,2.73
2023-02-09T15:40:50.484Z,2.18
2023-02-09T15:46:12.149Z,2.36
2023-02-09T15:51:18.161Z,2.18
2023-02-09T15:56:24.352Z,2.34
2023-02-09T16:01:28.871Z,1.76
2023-02-09T16:06:35.727Z,1.94
2023-02-09T16:11:42.271Z,1.81
2023-02-09T16:16:46.661Z,2.01
2023-02-09T16:21:54.386Z,1.96
2023-02-09T16:27:01.949Z,2.21
2023-02-09T16:32:08.059Z,2.44
2023-02-09T16:37:16.379Z,2.52
2023-02-09T16:42:22.267Z,2.34
2023-02-09T16:47:28.343Z,2.23
2023-02-09T16:52:33.015Z,1.86
2023-02-09T16:57:38.811Z,2.25
2023-02-09T17:02:44.345Z,1.54
2023-02-09T17:07:54.836Z,0.95
2023-02-09T17:13:04.745Z,1.05
2023-02-09T17:18:13.248Z,1.85
2023-02-09T17:23:19.260Z,1.42
2023-02-09T17:28:25.509Z,1.13
2023-02-09T17:33:33.266Z,1.06
2023-02-09T17:38:41.004Z,1.17
2023-02-09T17:43:47.697Z,0.73
2023-02-09T17:48:52.175Z,0.92
2023-02-09T17:53:57.735Z,1.19
2023-02-09T17:59:13.468Z,0.38
2023-02-09T18:04:20.520Z,-0.08
2023-02-09T18:09:25.039Z,-0.04
2023-02-09T18:14:32.688Z,0.09
2023-02-09T18:19:37.255Z,-0.66
2023-02-09T18:24:42.057Z,-0.61
2023-02-09T18:29:47.815Z,-0.79
2023-02-09T18:34:52.538Z,-0.40
2023-02-09T18:39:56.908Z,-0.49
2023-02-09T18:45:02.964Z,-0.66
2023-02-09T18:50:07.959Z,-0.47
2023-02-09T18:55:12.363Z,-0.82
2023-02-09T19:00:20.473Z,-1.29
2023-02-09T19:05:26.234Z,-1.48
2023-02-09T19:10:33.102Z,-1.43
2023-02-09T19:15:40.435Z,-1.48
2023-02-09T19:20:44.973Z,-0.73
2023-02-09T19:25:49.377Z,-1.36
2023-02-09T19:30:55.398Z,-1.52
2023-02-09T19:35:59.821Z,-1.69
2023-02-09T19:41:10.443Z,-1.96
2023-02-09T19:46:16.968Z,-1.49
2023-02-09T19:51:21.459Z,-1.24
2023-02-09T19:56:25.791Z,-1.30
2023-02-09T20:01:32.400Z,-1.33
2023-02-09T20:06:36.899Z,-1.04
2023-02-09T20:11:41.343Z,-1.59
2023-02-09T20:16:47.058Z,-1.52
2023-02-09T20:21:51.085Z,-1.90
2023-02-09T20:26:55.435Z,-1.77
2023-02-09T20:32:02.060Z,-1.86
2023-02-09T20:37:07.258Z,-1.51
2023-02-09T20:42:28.873Z,-1.80
2023-02-09T20:47:35.020Z,-0.94
2023-02-09T20:52:39.616Z,-1.30
2023-02-09T20:57:44.047Z,-1.91
2023-02-09T21:02:49.922Z,-1.47
2023-02-09T21:07:55.560Z,-1.61
2023-02-09T21:13:00.153Z,-1.48
2023-02-09T21:18:06.800Z,-1.69
2023-02-09T21:23:11.341Z,-1.71
2023-02-09T21:28:15.913Z,-1.56
2023-02-09T21:33:21.788Z,-1.95
2023-02-09T21:38:26.101Z,-1.68
2023-02-09T21:43:30.400Z,-1.41
2023-02-09T21:48:54.707Z,-1.41
2023-02-09T21:53:59.203Z,-0.87
2023-02-09T21:59:03.431Z,-0.92
2023-02-09T22:04:09.457Z,-1.78
2023-02-09T22:09:13.783Z,-1.76
2023-02-09T22:14:18.062Z,-2.00
2023-02-09T22:19:24.269Z,-1.42
2023-02-09T22:24:30.052Z,-2.04
2023-02-09T22:29:34.617Z,-1.83
2023-02-09T22:34:40.496Z,-1.66
2023-02-09T22:39:46.613Z,-1.36
2023-02-09T22:44:50.903Z,-1.40
2023-02-09T22:49:56.720Z,-1.71
2023-02-09T22:55:00.673Z,-1.58
2023-02-09T23:00:07.707Z,-1.98
2023-02-09T23:05:13.625Z,-1.85
2023-02-09T23:10:18.305Z,-2.15
2023-02-09T23:15:22.536Z,-2.23
2023-02-09T23:20:28.431Z,-2.21
2023-02-09T23:25:32.711Z,-2.11
2023-02-09T23:30:36.955Z,-2.18
2023-02-09T23:35:43.271Z,-2.37
2023-02-09T23:40:47.588Z,-2.11
2023-02-09T23:45:52.095Z,-2.19
2023-02-09T23:51:01.090Z,-1.96
2023-02-09T23:56:05.978Z,-2.21
